Midland, NC (28107)

12:05 AM EDT on July 30, 2015 (GMT -0400)
Thief River Farm | | Change Station
CLOSE
Current Station
Personal Weather Station
Location: Midland, NC
Elevation: 604 ft
Nearby Weather Stations

Elev 604 ft 35.28 °N, 80.54 °W | Updated 5 minutes ago

Overcast
Overcast
78.3 °F
Feels Like 82 °F
N
0.0
Wind Variable Wind from South

Today
High -- | Low -- °F
--% Chance of Precip.
Yesterday
High -- | Low -- °F
Precip. -- in
6:29 AM 8:27 PM
Waxing Gibbous, 98% visible
Pressure 30.03 in
Visibility 10.0 miles
Clouds Scattered Clouds 8000 ft
Heat Index 82 °F
Dew Point 78 °F
Humidity 99%
Rainfall in
Snow Depth Not available.
UV 0 out of 12
Pollen 3.20 out of 12
Air Quality Not available.
Flu Activity Not available.
METAR KJQF 300355Z AUTO 00000KT 10SM SCT080 25/23 A3003 RMK AO2

More Conditions Fewer Conditions

Pressure 30.03 in
Visibility 10.0 miles
Clouds Scattered Clouds 8000 ft
Heat Index 82 °F
Dew Point 78 °F
Humidity 99%
Rainfall in
Snow Depth Not available.
UV 0 out of 12
Pollen 3.20 out of 12
Air Quality Not available.
Flu Activity Not available.
METAR KJQF 300355Z AUTO 00000KT 10SM SCT080 25/23 A3003 RMK AO2

More Conditions Fewer Conditions

10-Day Weather Forecast

×

Almanac

Astronomy

Jul. 30, 2015 Rise Set
Actual Time
Civil Twilight
Nautical Twilight
Astronomical Twilight
Moon
Length of Visible Light
Length of Day
Tomorrow will be .
, % of the Moon is Illuminated

Today's Extremes

State Highs State Lows

Community

WunderPhotos

Upload Photos

1,842,293 photos uploaded!

WunderBlogs® & News

Nearby

Air Quality

  Air Quality AQ Index Pollutant
Not available.

Snow Depth

Station Depth Elevation

Earthquake Activity

City Distance Mag. Time & Date
Minimum magnitude displayed is 2.5.

Coastal Water Temperatures

Place Temperature

Stations

Nearby Weather Stations

Station Location Temp. Windchill Dew Point Humidity Wind Precip. Elev Updated Type